sensor_id;sensor_type;location;lat;lon;timestamp;temperature;humidity
40622;DHT22;26324;52.040;11.528;2022-08-21T00:00:11;18.60;75.60
40622;DHT22;26324;52.040;11.528;2022-08-21T00:02:43;18.70;75.60
40622;DHT22;26324;52.040;11.528;2022-08-21T00:05:09;18.70;75.60
40622;DHT22;26324;52.040;11.528;2022-08-21T00:07:36;18.70;75.50
40622;DHT22;26324;52.040;11.528;2022-08-21T00:10:01;18.70;75.50
40622;DHT22;26324;52.040;11.528;2022-08-21T00:12:27;18.80;75.60
40622;DHT22;26324;52.040;11.528;2022-08-21T00:14:53;18.80;75.30
40622;DHT22;26324;52.040;11.528;2022-08-21T00:17:18;18.80;75.20
40622;DHT22;26324;52.040;11.528;2022-08-21T00:19:44;18.80;75.30
40622;DHT22;26324;52.040;11.528;2022-08-21T00:22:09;18.80;75.70
40622;DHT22;26324;52.040;11.528;2022-08-21T00:24:35;18.80;75.90
40622;DHT22;26324;52.040;11.528;2022-08-21T00:27:01;18.80;75.90
40622;DHT22;26324;52.040;11.528;2022-08-21T00:29:27;18.80;76.20
40622;DHT22;26324;52.040;11.528;2022-08-21T00:31:53;18.80;76.10
40622;DHT22;26324;52.040;11.528;2022-08-21T00:34:19;18.70;76.20
40622;DHT22;26324;52.040;11.528;2022-08-21T00:36:44;18.70;76.10
40622;DHT22;26324;52.040;11.528;2022-08-21T00:39:10;18.80;75.30
40622;DHT22;26324;52.040;11.528;2022-08-21T00:41:37;18.70;75.70
40622;DHT22;26324;52.040;11.528;2022-08-21T00:44:03;18.80;75.60
40622;DHT22;26324;52.040;11.528;2022-08-21T00:46:33;18.80;74.80
40622;DHT22;26324;52.040;11.528;2022-08-21T00:48:59;18.80;75.00
40622;DHT22;26324;52.040;11.528;2022-08-21T00:51:46;18.70;75.10
40622;DHT22;26324;52.040;11.528;2022-08-21T00:54:13;18.60;75.20
40622;DHT22;26324;52.040;11.528;2022-08-21T00:56:39;18.60;75.30
40622;DHT22;26324;52.040;11.528;2022-08-21T00:59:05;18.50;75.40
40622;DHT22;26324;52.040;11.528;2022-08-21T01:01:31;18.50;75.60
40622;DHT22;26324;52.040;11.528;2022-08-21T01:03:57;18.60;75.50
40622;DHT22;26324;52.040;11.528;2022-08-21T01:06:23;18.60;75.40
40622;DHT22;26324;52.040;11.528;2022-08-21T01:08:49;18.60;75.50
40622;DHT22;26324;52.040;11.528;2022-08-21T01:11:16;18.70;75.50
40622;DHT22;26324;52.040;11.528;2022-08-21T01:13:43;18.70;75.60
40622;DHT22;26324;52.040;11.528;2022-08-21T01:16:14;18.60;76.00
40622;DHT22;26324;52.040;11.528;2022-08-21T01:18:40;18.60;76.40
40622;DHT22;26324;52.040;11.528;2022-08-21T01:21:18;18.60;76.80
40622;DHT22;26324;52.040;11.528;2022-08-21T01:23:47;18.60;76.80
40622;DHT22;26324;52.040;11.528;2022-08-21T01:26:15;18.60;76.20
40622;DHT22;26324;52.040;11.528;2022-08-21T01:28:59;18.60;76.10
40622;DHT22;26324;52.040;11.528;2022-08-21T01:31:27;18.70;75.90
40622;DHT22;26324;52.040;11.528;2022-08-21T01:33:54;18.70;75.70
40622;DHT22;26324;52.040;11.528;2022-08-21T01:36:20;18.70;76.20
40622;DHT22;26324;52.040;11.528;2022-08-21T01:38:46;18.60;76.70
40622;DHT22;26324;52.040;11.528;2022-08-21T01:41:15;18.60;76.90
40622;DHT22;26324;52.040;11.528;2022-08-21T01:43:41;18.60;76.60
40622;DHT22;26324;52.040;11.528;2022-08-21T01:46:08;18.70;76.90
40622;DHT22;26324;52.040;11.528;2022-08-21T01:48:34;18.50;77.30
40622;DHT22;26324;52.040;11.528;2022-08-21T01:50:59;18.50;77.70
40622;DHT22;26324;52.040;11.528;2022-08-21T01:53:28;18.50;77.50
40622;DHT22;26324;52.040;11.528;2022-08-21T01:55:54;18.50;76.80
40622;DHT22;26324;52.040;11.528;2022-08-21T01:58:20;18.60;76.40
40622;DHT22;26324;52.040;11.528;2022-08-21T02:00:45;18.50;76.70
40622;DHT22;26324;52.040;11.528;2022-08-21T02:03:11;18.40;76.80
40622;DHT22;26324;52.040;11.528;2022-08-21T02:05:36;18.40;76.80
40622;DHT22;26324;52.040;11.528;2022-08-21T02:08:02;18.20;77.10
40622;DHT22;26324;52.040;11.528;2022-08-21T02:10:30;18.20;77.60
40622;DHT22;26324;52.040;11.528;2022-08-21T02:12:57;18.20;77.40
40622;DHT22;26324;52.040;11.528;2022-08-21T02:15:24;18.20;77.70
40622;DHT22;26324;52.040;11.528;2022-08-21T02:17:55;18.30;77.00
40622;DHT22;26324;52.040;11.528;2022-08-21T02:20:31;18.30;76.30
40622;DHT22;26324;52.040;11.528;2022-08-21T02:22:57;18.30;76.10
40622;DHT22;26324;52.040;11.528;2022-08-21T02:25:24;18.30;76.50
40622;DHT22;26324;52.040;11.528;2022-08-21T02:27:50;18.20;77.00
40622;DHT22;26324;52.040;11.528;2022-08-21T02:30:19;18.00;77.80
40622;DHT22;26324;52.040;11.528;2022-08-21T02:32:45;17.90;78.40
40622;DHT22;26324;52.040;11.528;2022-08-21T02:35:11;17.80;78.90
40622;DHT22;26324;52.040;11.528;2022-08-21T02:38:20;17.70;78.80
40622;DHT22;26324;52.040;11.528;2022-08-21T02:40:39;17.70;79.00
40622;DHT22;26324;52.040;11.528;2022-08-21T02:43:06;17.60;78.90
40622;DHT22;26324;52.040;11.528;2022-08-21T02:45:32;17.60;79.40
40622;DHT22;26324;52.040;11.528;2022-08-21T02:48:04;17.60;78.30
40622;DHT22;26324;52.040;11.528;2022-08-21T02:50:34;17.60;78.00
40622;DHT22;26324;52.040;11.528;2022-08-21T02:53:00;17.70;78.00
40622;DHT22;26324;52.040;11.528;2022-08-21T02:55:28;17.60;77.90
40622;DHT22;26324;52.040;11.528;2022-08-21T02:57:55;17.60;78.00
40622;DHT22;26324;52.040;11.528;2022-08-21T03:00:26;17.50;78.10
40622;DHT22;26324;52.040;11.528;2022-08-21T03:02:52;17.40;77.90
40622;DHT22;26324;52.040;11.528;2022-08-21T03:05:19;17.20;78.10
40622;DHT22;26324;52.040;11.528;2022-08-21T03:07:46;17.20;78.70
40622;DHT22;26324;52.040;11.528;2022-08-21T03:10:13;17.10;79.40
40622;DHT22;26324;52.040;11.528;2022-08-21T03:12:38;17.00;79.80
40622;DHT22;26324;52.040;11.528;2022-08-21T03:15:08;17.00;80.20
40622;DHT22;26324;52.040;11.528;2022-08-21T03:17:34;17.00;80.30
40622;DHT22;26324;52.040;11.528;2022-08-21T03:20:00;17.00;80.30
40622;DHT22;26324;52.040;11.528;2022-08-21T03:22:26;17.00;80.30
40622;DHT22;26324;52.040;11.528;2022-08-21T03:24:52;16.90;80.60
40622;DHT22;26324;52.040;11.528;2022-08-21T03:27:19;16.90;80.70
40622;DHT22;26324;52.040;11.528;2022-08-21T03:29:45;16.80;80.80
40622;DHT22;26324;52.040;11.528;2022-08-21T03:32:10;16.80;81.30
40622;DHT22;26324;52.040;11.528;2022-08-21T03:34:37;16.80;81.30
40622;DHT22;26324;52.040;11.528;2022-08-21T03:37:04;16.80;81.50
40622;DHT22;26324;52.040;11.528;2022-08-21T03:39:29;16.80;81.50
40622;DHT22;26324;52.040;11.528;2022-08-21T03:41:55;16.90;81.20
40622;DHT22;26324;52.040;11.528;2022-08-21T03:44:20;16.90;81.00
40622;DHT22;26324;52.040;11.528;2022-08-21T03:46:48;16.90;80.40
40622;DHT22;26324;52.040;11.528;2022-08-21T03:49:14;16.90;79.90
40622;DHT22;26324;52.040;11.528;2022-08-21T03:51:39;16.80;80.10
40622;DHT22;26324;52.040;11.528;2022-08-21T03:54:05;16.80;80.40
40622;DHT22;26324;52.040;11.528;2022-08-21T03:56:31;16.70;80.80
40622;DHT22;26324;52.040;11.528;2022-08-21T04:01:26;16.60;81.50
40622;DHT22;26324;52.040;11.528;2022-08-21T04:03:51;16.50;81.90
40622;DHT22;26324;52.040;11.528;2022-08-21T04:06:17;16.40;81.80
40622;DHT22;26324;52.040;11.528;2022-08-21T04:08:43;16.40;81.90
40622;DHT22;26324;52.040;11.528;2022-08-21T04:11:08;16.30;81.90
40622;DHT22;26324;52.040;11.528;2022-08-21T04:13:36;16.20;81.90
40622;DHT22;26324;52.040;11.528;2022-08-21T04:16:01;16.20;81.70
40622;DHT22;26324;52.040;11.528;2022-08-21T04:18:27;16.10;82.00
40622;DHT22;26324;52.040;11.528;2022-08-21T04:20:54;16.20;82.00
40622;DHT22;26324;52.040;11.528;2022-08-21T04:23:23;16.20;81.90
40622;DHT22;26324;52.040;11.528;2022-08-21T04:25:49;16.30;81.30
40622;DHT22;26324;52.040;11.528;2022-08-21T04:28:14;16.30;81.00
40622;DHT22;26324;52.040;11.528;2022-08-21T04:30:40;16.30;80.80
40622;DHT22;26324;52.040;11.528;2022-08-21T04:33:06;16.30;80.60
40622;DHT22;26324;52.040;11.528;2022-08-21T04:35:32;16.30;80.70
40622;DHT22;26324;52.040;11.528;2022-08-21T04:37:57;16.30;80.80
40622;DHT22;26324;52.040;11.528;2022-08-21T04:40:25;16.10;81.10
40622;DHT22;26324;52.040;11.528;2022-08-21T04:42:57;16.10;81.50
40622;DHT22;26324;52.040;11.528;2022-08-21T04:45:30;16.20;81.80
40622;DHT22;26324;52.040;11.528;2022-08-21T04:47:58;16.20;81.50
40622;DHT22;26324;52.040;11.528;2022-08-21T04:50:31;16.20;81.60
40622;DHT22;26324;52.040;11.528;2022-08-21T04:53:00;16.20;81.40
40622;DHT22;26324;52.040;11.528;2022-08-21T04:55:25;16.10;81.50
40622;DHT22;26324;52.040;11.528;2022-08-21T04:57:54;16.20;81.30
40622;DHT22;26324;52.040;11.528;2022-08-21T05:00:20;16.20;81.50
40622;DHT22;26324;52.040;11.528;2022-08-21T05:02:48;16.20;81.60
40622;DHT22;26324;52.040;11.528;2022-08-21T05:05:14;16.20;81.50
40622;DHT22;26324;52.040;11.528;2022-08-21T05:07:41;16.20;81.00
40622;DHT22;26324;52.040;11.528;2022-08-21T05:10:08;16.20;80.70
40622;DHT22;26324;52.040;11.528;2022-08-21T05:12:34;16.20;80.70
40622;DHT22;26324;52.040;11.528;2022-08-21T05:15:00;16.20;80.90
40622;DHT22;26324;52.040;11.528;2022-08-21T05:17:26;16.20;81.30
40622;DHT22;26324;52.040;11.528;2022-08-21T05:19:51;16.30;81.40
40622;DHT22;26324;52.040;11.528;2022-08-21T05:22:21;16.40;81.00
40622;DHT22;26324;52.040;11.528;2022-08-21T05:24:47;16.40;80.50
40622;DHT22;26324;52.040;11.528;2022-08-21T05:27:13;16.40;80.60
40622;DHT22;26324;52.040;11.528;2022-08-21T05:29:38;16.40;80.20
40622;DHT22;26324;52.040;11.528;2022-08-21T05:32:09;16.50;79.90
40622;DHT22;26324;52.040;11.528;2022-08-21T05:34:35;16.50;79.70
40622;DHT22;26324;52.040;11.528;2022-08-21T05:37:00;16.50;79.80
40622;DHT22;26324;52.040;11.528;2022-08-21T05:39:26;16.60;79.80
40622;DHT22;26324;52.040;11.528;2022-08-21T05:41:51;16.60;79.70
40622;DHT22;26324;52.040;11.528;2022-08-21T05:44:17;16.70;79.50
40622;DHT22;26324;52.040;11.528;2022-08-21T05:46:42;16.90;79.00
40622;DHT22;26324;52.040;11.528;2022-08-21T05:49:08;17.10;79.20
40622;DHT22;26324;52.040;11.528;2022-08-21T05:51:34;17.30;78.40
40622;DHT22;26324;52.040;11.528;2022-08-21T05:54:00;17.20;78.00
40622;DHT22;26324;52.040;11.528;2022-08-21T05:56:26;17.40;76.90
40622;DHT22;26324;52.040;11.528;2022-08-21T05:58:52;17.40;76.90
40622;DHT22;26324;52.040;11.528;2022-08-21T06:01:17;17.40;77.40
40622;DHT22;26324;52.040;11.528;2022-08-21T06:03:44;17.50;77.30
40622;DHT22;26324;52.040;11.528;2022-08-21T06:06:09;17.50;77.10
40622;DHT22;26324;52.040;11.528;2022-08-21T06:08:35;17.40;77.00
40622;DHT22;26324;52.040;11.528;2022-08-21T06:11:02;17.50;76.10
40622;DHT22;26324;52.040;11.528;2022-08-21T06:13:29;17.60;76.30
40622;DHT22;26324;52.040;11.528;2022-08-21T06:16:20;17.50;76.80
40622;DHT22;26324;52.040;11.528;2022-08-21T06:18:47;17.60;76.20
40622;DHT22;26324;52.040;11.528;2022-08-21T06:21:13;17.70;76.00
40622;DHT22;26324;52.040;11.528;2022-08-21T06:23:39;17.70;75.60
40622;DHT22;26324;52.040;11.528;2022-08-21T06:26:06;17.70;75.20
40622;DHT22;26324;52.040;11.528;2022-08-21T06:28:33;17.90;74.70
40622;DHT22;26324;52.040;11.528;2022-08-21T06:30:59;18.00;74.80
40622;DHT22;26324;52.040;11.528;2022-08-21T06:33:24;18.10;74.10
40622;DHT22;26324;52.040;11.528;2022-08-21T06:35:50;18.10;73.50
40622;DHT22;26324;52.040;11.528;2022-08-21T06:38:16;18.20;72.20
40622;DHT22;26324;52.040;11.528;2022-08-21T06:40:42;18.30;71.50
40622;DHT22;26324;52.040;11.528;2022-08-21T06:43:13;18.50;71.10
40622;DHT22;26324;52.040;11.528;2022-08-21T06:45:39;18.50;71.50
40622;DHT22;26324;52.040;11.528;2022-08-21T06:48:05;18.70;70.80
40622;DHT22;26324;52.040;11.528;2022-08-21T06:50:32;18.80;70.50
40622;DHT22;26324;52.040;11.528;2022-08-21T06:53:05;18.90;70.20
40622;DHT22;26324;52.040;11.528;2022-08-21T06:55:31;19.00;69.00
40622;DHT22;26324;52.040;11.528;2022-08-21T06:57:57;19.00;67.60
40622;DHT22;26324;52.040;11.528;2022-08-21T07:00:23;19.10;67.10
40622;DHT22;26324;52.040;11.528;2022-08-21T07:02:48;19.10;67.00
40622;DHT22;26324;52.040;11.528;2022-08-21T07:05:14;19.30;67.20
40622;DHT22;26324;52.040;11.528;2022-08-21T07:07:40;19.50;66.40
40622;DHT22;26324;52.040;11.528;2022-08-21T07:10:05;19.70;65.90
40622;DHT22;26324;52.040;11.528;2022-08-21T07:12:31;19.90;64.30
40622;DHT22;26324;52.040;11.528;2022-08-21T07:14:56;20.00;64.90
40622;DHT22;26324;52.040;11.528;2022-08-21T07:17:23;20.40;62.10
40622;DHT22;26324;52.040;11.528;2022-08-21T07:19:49;20.40;62.30
40622;DHT22;26324;52.040;11.528;2022-08-21T07:22:20;20.60;60.90
40622;DHT22;26324;52.040;11.528;2022-08-21T07:24:46;20.70;60.00
40622;DHT22;26324;52.040;11.528;2022-08-21T07:27:12;20.80;59.30
40622;DHT22;26324;52.040;11.528;2022-08-21T07:29:38;20.70;59.30
40622;DHT22;26324;52.040;11.528;2022-08-21T07:32:04;20.60;58.70
40622;DHT22;26324;52.040;11.528;2022-08-21T07:34:29;20.60;59.90
40622;DHT22;26324;52.040;11.528;2022-08-21T07:36:56;20.60;59.40
40622;DHT22;26324;52.040;11.528;2022-08-21T07:39:21;20.60;59.50
40622;DHT22;26324;52.040;11.528;2022-08-21T07:41:47;20.80;59.60
40622;DHT22;26324;52.040;11.528;2022-08-21T07:44:12;20.90;57.10
40622;DHT22;26324;52.040;11.528;2022-08-21T07:46:38;20.90;56.40
40622;DHT22;26324;52.040;11.528;2022-08-21T07:49:04;20.90;56.30
40622;DHT22;26324;52.040;11.528;2022-08-21T07:51:30;21.00;55.80
40622;DHT22;26324;52.040;11.528;2022-08-21T07:53:57;21.10;55.80
40622;DHT22;26324;52.040;11.528;2022-08-21T07:56:24;21.20;55.30
40622;DHT22;26324;52.040;11.528;2022-08-21T07:58:50;21.40;54.10
40622;DHT22;26324;52.040;11.528;2022-08-21T08:01:16;21.60;52.90
40622;DHT22;26324;52.040;11.528;2022-08-21T08:03:42;21.70;52.10
40622;DHT22;26324;52.040;11.528;2022-08-21T08:06:08;21.70;53.20
40622;DHT22;26324;52.040;11.528;2022-08-21T08:08:38;21.80;54.50
40622;DHT22;26324;52.040;11.528;2022-08-21T08:11:04;21.70;53.50
40622;DHT22;26324;52.040;11.528;2022-08-21T08:13:29;21.70;53.30
40622;DHT22;26324;52.040;11.528;2022-08-21T08:15:55;21.80;52.90
40622;DHT22;26324;52.040;11.528;2022-08-21T08:18:21;22.10;52.70
40622;DHT22;26324;52.040;11.528;2022-08-21T08:20:47;22.20;53.10
40622;DHT22;26324;52.040;11.528;2022-08-21T08:23:13;22.20;53.00
40622;DHT22;26324;52.040;11.528;2022-08-21T08:25:39;22.30;53.00
40622;DHT22;26324;52.040;11.528;2022-08-21T08:28:06;22.30;55.10
40622;DHT22;26324;52.040;11.528;2022-08-21T08:30:32;22.40;52.70
40622;DHT22;26324;52.040;11.528;2022-08-21T08:32:58;22.60;52.70
40622;DHT22;26324;52.040;11.528;2022-08-21T08:35:25;22.90;52.50
40622;DHT22;26324;52.040;11.528;2022-08-21T08:37:51;23.20;49.20
40622;DHT22;26324;52.040;11.528;2022-08-21T08:43:11;23.30;49.10
40622;DHT22;26324;52.040;11.528;2022-08-21T08:45:39;23.30;51.90
40622;DHT22;26324;52.040;11.528;2022-08-21T08:48:08;23.50;48.90
40622;DHT22;26324;52.040;11.528;2022-08-21T08:53:06;23.70;49.00
40622;DHT22;26324;52.040;11.528;2022-08-21T08:55:41;23.90;49.70
40622;DHT22;26324;52.040;11.528;2022-08-21T08:58:14;24.00;47.60
40622;DHT22;26324;52.040;11.528;2022-08-21T09:00:52;24.00;46.90
40622;DHT22;26324;52.040;11.528;2022-08-21T09:03:18;24.20;47.00
40622;DHT22;26324;52.040;11.528;2022-08-21T09:06:11;24.10;46.80
40622;DHT22;26324;52.040;11.528;2022-08-21T09:08:54;24.20;47.50
40622;DHT22;26324;52.040;11.528;2022-08-21T09:11:42;24.10;48.00
40622;DHT22;26324;52.040;11.528;2022-08-21T09:14:25;24.60;47.90
40622;DHT22;26324;52.040;11.528;2022-08-21T09:19:59;25.10;47.40
40622;DHT22;26324;52.040;11.528;2022-08-21T09:25:42;25.20;44.90
40622;DHT22;26324;52.040;11.528;2022-08-21T09:28:11;25.10;48.70
40622;DHT22;26324;52.040;11.528;2022-08-21T09:30:40;25.30;47.30
40622;DHT22;26324;52.040;11.528;2022-08-21T09:33:06;25.60;45.70
40622;DHT22;26324;52.040;11.528;2022-08-21T09:35:32;25.40;44.90
40622;DHT22;26324;52.040;11.528;2022-08-21T09:38:06;25.10;45.90
40622;DHT22;26324;52.040;11.528;2022-08-21T09:40:42;25.20;45.30
40622;DHT22;26324;52.040;11.528;2022-08-21T09:45:38;25.00;45.30
40622;DHT22;26324;52.040;11.528;2022-08-21T09:48:11;25.10;44.70
40622;DHT22;26324;52.040;11.528;2022-08-21T09:50:38;25.10;44.60
40622;DHT22;26324;52.040;11.528;2022-08-21T09:53:04;25.20;44.10
40622;DHT22;26324;52.040;11.528;2022-08-21T09:55:38;25.30;43.70
40622;DHT22;26324;52.040;11.528;2022-08-21T09:58:31;25.40;46.40
40622;DHT22;26324;52.040;11.528;2022-08-21T10:00:59;25.70;44.10
40622;DHT22;26324;52.040;11.528;2022-08-21T10:03:25;25.80;44.40
40622;DHT22;26324;52.040;11.528;2022-08-21T10:05:57;25.80;43.60
40622;DHT22;26324;52.040;11.528;2022-08-21T10:08:25;25.70;43.50
40622;DHT22;26324;52.040;11.528;2022-08-21T10:11:01;25.80;43.40
40622;DHT22;26324;52.040;11.528;2022-08-21T10:13:40;25.90;41.50
40622;DHT22;26324;52.040;11.528;2022-08-21T10:16:31;25.90;43.30
40622;DHT22;26324;52.040;11.528;2022-08-21T10:19:23;26.00;41.10
40622;DHT22;26324;52.040;11.528;2022-08-21T10:22:38;26.00;40.70
40622;DHT22;26324;52.040;11.528;2022-08-21T10:30:12;25.70;43.80
40622;DHT22;26324;52.040;11.528;2022-08-21T10:32:53;26.10;43.60
40622;DHT22;26324;52.040;11.528;2022-08-21T10:35:37;26.50;42.20
40622;DHT22;26324;52.040;11.528;2022-08-21T10:38:50;27.10;41.80
40622;DHT22;26324;52.040;11.528;2022-08-21T10:47:12;27.30;38.70
40622;DHT22;26324;52.040;11.528;2022-08-21T10:50:17;27.20;38.10
40622;DHT22;26324;52.040;11.528;2022-08-21T10:53:13;27.00;38.10
40622;DHT22;26324;52.040;11.528;2022-08-21T10:55:52;26.60;36.40
40622;DHT22;26324;52.040;11.528;2022-08-21T10:58:29;26.50;35.40
40622;DHT22;26324;52.040;11.528;2022-08-21T11:01:20;26.50;36.50
40622;DHT22;26324;52.040;11.528;2022-08-21T11:03:54;26.60;37.60
40622;DHT22;26324;52.040;11.528;2022-08-21T11:06:28;26.70;38.20
40622;DHT22;26324;52.040;11.528;2022-08-21T11:09:06;27.10;39.10
40622;DHT22;26324;52.040;11.528;2022-08-21T11:11:47;27.30;37.00
40622;DHT22;26324;52.040;11.528;2022-08-21T11:14:34;27.30;37.10
40622;DHT22;26324;52.040;11.528;2022-08-21T11:17:11;27.50;35.40
40622;DHT22;26324;52.040;11.528;2022-08-21T11:19:59;27.50;35.80
40622;DHT22;26324;52.040;11.528;2022-08-21T11:22:49;27.50;35.60
40622;DHT22;26324;52.040;11.528;2022-08-21T11:25:34;27.50;35.00
40622;DHT22;26324;52.040;11.528;2022-08-21T11:28:25;27.40;39.20
40622;DHT22;26324;52.040;11.528;2022-08-21T11:52:15;28.40;37.00
40622;DHT22;26324;52.040;11.528;2022-08-21T11:54:54;28.70;35.40
40622;DHT22;26324;52.040;11.528;2022-08-21T11:57:34;29.00;35.20
40622;DHT22;26324;52.040;11.528;2022-08-21T12:00:24;29.00;34.30
40622;DHT22;26324;52.040;11.528;2022-08-21T12:02:55;29.20;34.90
40622;DHT22;26324;52.040;11.528;2022-08-21T12:05:34;29.30;37.20
40622;DHT22;26324;52.040;11.528;2022-08-21T12:08:29;29.50;33.90
40622;DHT22;26324;52.040;11.528;2022-08-21T12:11:24;29.30;32.10
40622;DHT22;26324;52.040;11.528;2022-08-21T12:16:38;29.10;33.90
40622;DHT22;26324;52.040;11.528;2022-08-21T12:19:05;29.10;33.70
40622;DHT22;26324;52.040;11.528;2022-08-21T12:21:31;29.10;34.30
40622;DHT22;26324;52.040;11.528;2022-08-21T12:26:59;29.00;34.30
40622;DHT22;26324;52.040;11.528;2022-08-21T12:29:33;28.60;34.70
40622;DHT22;26324;52.040;11.528;2022-08-21T12:34:50;28.30;34.50
40622;DHT22;26324;52.040;11.528;2022-08-21T12:37:22;28.50;34.70
40622;DHT22;26324;52.040;11.528;2022-08-21T12:39:52;28.60;34.00
40622;DHT22;26324;52.040;11.528;2022-08-21T12:42:38;28.70;34.40
40622;DHT22;26324;52.040;11.528;2022-08-21T12:45:33;29.00;36.30
40622;DHT22;26324;52.040;11.528;2022-08-21T12:48:04;29.00;34.90
40622;DHT22;26324;52.040;11.528;2022-08-21T12:50:46;29.10;35.20
40622;DHT22;26324;52.040;11.528;2022-08-21T12:53:30;29.10;36.30
40622;DHT22;26324;52.040;11.528;2022-08-21T12:56:07;29.20;36.40
40622;DHT22;26324;52.040;11.528;2022-08-21T12:58:34;29.30;33.90
40622;DHT22;26324;52.040;11.528;2022-08-21T13:01:21;29.00;33.50
40622;DHT22;26324;52.040;11.528;2022-08-21T13:03:49;28.80;34.60
40622;DHT22;26324;52.040;11.528;2022-08-21T13:06:18;28.80;36.70
40622;DHT22;26324;52.040;11.528;2022-08-21T13:08:46;29.00;36.20
40622;DHT22;26324;52.040;11.528;2022-08-21T13:11:16;29.30;36.70
40622;DHT22;26324;52.040;11.528;2022-08-21T13:13:48;29.70;35.40
40622;DHT22;26324;52.040;11.528;2022-08-21T13:16:25;29.80;34.50
40622;DHT22;26324;52.040;11.528;2022-08-21T13:18:55;29.70;33.80
40622;DHT22;26324;52.040;11.528;2022-08-21T13:21:21;29.50;35.20
40622;DHT22;26324;52.040;11.528;2022-08-21T13:23:46;29.40;34.20
40622;DHT22;26324;52.040;11.528;2022-08-21T13:26:18;29.30;34.20
40622;DHT22;26324;52.040;11.528;2022-08-21T13:28:45;29.10;34.00
40622;DHT22;26324;52.040;11.528;2022-08-21T13:31:17;29.00;34.40
40622;DHT22;26324;52.040;11.528;2022-08-21T13:33:44;29.50;34.10
40622;DHT22;26324;52.040;11.528;2022-08-21T13:36:11;31.10;33.00
40622;DHT22;26324;52.040;11.528;2022-08-21T13:38:40;32.60;31.80
40622;DHT22;26324;52.040;11.528;2022-08-21T13:43:46;34.10;28.60
40622;DHT22;26324;52.040;11.528;2022-08-21T13:46:13;33.80;30.50
40622;DHT22;26324;52.040;11.528;2022-08-21T13:48:41;33.10;29.20
40622;DHT22;26324;52.040;11.528;2022-08-21T13:51:07;32.10;29.90
40622;DHT22;26324;52.040;11.528;2022-08-21T13:53:48;31.20;32.10
40622;DHT22;26324;52.040;11.528;2022-08-21T13:56:32;30.50;33.90
40622;DHT22;26324;52.040;11.528;2022-08-21T13:59:02;30.00;33.60
40622;DHT22;26324;52.040;11.528;2022-08-21T14:01:37;29.70;34.50
40622;DHT22;26324;52.040;11.528;2022-08-21T14:04:12;29.50;35.70
40622;DHT22;26324;52.040;11.528;2022-08-21T14:06:41;29.50;34.00
40622;DHT22;26324;52.040;11.528;2022-08-21T14:11:45;29.10;35.80
40622;DHT22;26324;52.040;11.528;2022-08-21T14:14:32;29.10;36.90
40622;DHT22;26324;52.040;11.528;2022-08-21T14:17:02;29.00;36.60
40622;DHT22;26324;52.040;11.528;2022-08-21T14:19:41;29.00;36.50
40622;DHT22;26324;52.040;11.528;2022-08-21T14:22:42;28.90;36.20
40622;DHT22;26324;52.040;11.528;2022-08-21T14:25:13;28.80;36.60
40622;DHT22;26324;52.040;11.528;2022-08-21T14:27:58;28.80;38.30
40622;DHT22;26324;52.040;11.528;2022-08-21T14:30:37;28.70;37.60
40622;DHT22;26324;52.040;11.528;2022-08-21T14:33:08;28.60;39.40
40622;DHT22;26324;52.040;11.528;2022-08-21T14:35:34;28.60;37.20
40622;DHT22;26324;52.040;11.528;2022-08-21T14:38:01;28.50;36.60
40622;DHT22;26324;52.040;11.528;2022-08-21T14:40:27;28.30;37.20
40622;DHT22;26324;52.040;11.528;2022-08-21T14:42:53;28.40;38.80
40622;DHT22;26324;52.040;11.528;2022-08-21T14:45:26;28.40;37.70
40622;DHT22;26324;52.040;11.528;2022-08-21T14:47:56;28.50;38.80
40622;DHT22;26324;52.040;11.528;2022-08-21T14:50:23;28.50;37.50
40622;DHT22;26324;52.040;11.528;2022-08-21T14:52:50;28.50;37.70
40622;DHT22;26324;52.040;11.528;2022-08-21T14:55:17;28.40;37.90
40622;DHT22;26324;52.040;11.528;2022-08-21T14:57:48;28.40;38.10
40622;DHT22;26324;52.040;11.528;2022-08-21T15:00:18;28.40;37.80
40622;DHT22;26324;52.040;11.528;2022-08-21T15:02:45;28.40;38.10
40622;DHT22;26324;52.040;11.528;2022-08-21T15:05:11;28.40;39.00
40622;DHT22;26324;52.040;11.528;2022-08-21T15:07:37;28.40;38.70
40622;DHT22;26324;52.040;11.528;2022-08-21T15:10:04;28.70;38.80
40622;DHT22;26324;52.040;11.528;2022-08-21T15:12:30;30.20;39.20
40622;DHT22;26324;52.040;11.528;2022-08-21T15:14:57;30.80;35.00
40622;DHT22;26324;52.040;11.528;2022-08-21T15:17:23;30.60;34.70
40622;DHT22;26324;52.040;11.528;2022-08-21T15:19:50;30.30;34.50
40622;DHT22;26324;52.040;11.528;2022-08-21T15:22:15;31.60;33.10
40622;DHT22;26324;52.040;11.528;2022-08-21T15:24:41;33.70;29.30
40622;DHT22;26324;52.040;11.528;2022-08-21T15:27:09;35.30;26.40
40622;DHT22;26324;52.040;11.528;2022-08-21T15:29:35;37.00;26.00
40622;DHT22;26324;52.040;11.528;2022-08-21T15:32:25;36.60;25.00
40622;DHT22;26324;52.040;11.528;2022-08-21T15:34:50;35.50;26.30
40622;DHT22;26324;52.040;11.528;2022-08-21T15:37:16;34.60;28.50
40622;DHT22;26324;52.040;11.528;2022-08-21T15:39:42;34.20;28.90
40622;DHT22;26324;52.040;11.528;2022-08-21T15:42:09;35.40;27.40
40622;DHT22;26324;52.040;11.528;2022-08-21T15:44:35;36.30;26.20
40622;DHT22;26324;52.040;11.528;2022-08-21T15:47:00;36.00;25.20
40622;DHT22;26324;52.040;11.528;2022-08-21T15:49:26;36.60;25.10
40622;DHT22;26324;52.040;11.528;2022-08-21T15:51:52;37.60;22.90
40622;DHT22;26324;52.040;11.528;2022-08-21T15:54:17;38.10;21.90
40622;DHT22;26324;52.040;11.528;2022-08-21T15:56:45;38.90;22.10
40622;DHT22;26324;52.040;11.528;2022-08-21T15:59:15;39.80;21.70
40622;DHT22;26324;52.040;11.528;2022-08-21T16:01:42;39.90;20.10
40622;DHT22;26324;52.040;11.528;2022-08-21T16:04:09;39.90;20.20
40622;DHT22;26324;52.040;11.528;2022-08-21T16:06:34;39.20;20.90
40622;DHT22;26324;52.040;11.528;2022-08-21T16:09:00;38.00;22.50
40622;DHT22;26324;52.040;11.528;2022-08-21T16:11:27;36.90;23.70
40622;DHT22;26324;52.040;11.528;2022-08-21T16:13:53;36.50;23.90
40622;DHT22;26324;52.040;11.528;2022-08-21T16:16:21;36.00;25.10
40622;DHT22;26324;52.040;11.528;2022-08-21T16:18:48;34.50;25.50
40622;DHT22;26324;52.040;11.528;2022-08-21T16:21:15;33.00;27.40
40622;DHT22;26324;52.040;11.528;2022-08-21T16:23:40;32.90;28.90
40622;DHT22;26324;52.040;11.528;2022-08-21T16:26:08;34.30;26.80
40622;DHT22;26324;52.040;11.528;2022-08-21T16:28:36;36.00;25.20
40622;DHT22;26324;52.040;11.528;2022-08-21T16:31:03;37.40;23.70
40622;DHT22;26324;52.040;11.528;2022-08-21T16:35:59;38.80;22.10